Time;durP1;ratioP1;P1;durP2;ratioP2;P2;SDS_P1;SDS_P2;PMS_P1;PMS_P2;Temp;Humidity;BMP_temperature;BMP_pressure;BME280_temperature;BME280_humidity;BME280_pressure;Samples;Min_cycle;Max_cycle;Signal;HPM_P1;HPM_P2
2023/11/12 00:00:22;;;;;;;1.00;1.00;;;10.50;99.90;;;;;;5096540;28;20195;-64
2023/11/12 00:02:49;;;;;;;1.37;1.00;;;10.40;99.90;;;;;;5091017;28;20267;-64
2023/11/12 00:05:17;;;;;;;0.90;0.90;;;10.40;99.90;;;;;;5096633;28;20188;-64
2023/11/12 00:07:45;;;;;;;0.80;0.80;;;10.30;99.90;;;;;;5097151;28;20275;-63
2023/11/12 00:10:13;;;;;;;1.40;1.30;;;10.30;99.90;;;;;;5097288;28;20195;-63
2023/11/12 00:12:41;;;;;;;1.40;1.20;;;10.40;99.90;;;;;;5095922;28;20206;-63
2023/11/12 00:15:09;;;;;;;1.13;1.03;;;10.30;99.90;;;;;;5099448;28;20217;-63
2023/11/12 00:17:37;;;;;;;1.43;1.33;;;10.30;99.90;;;;;;5095438;28;20192;-64
2023/11/12 00:20:07;;;;;;;2.20;1.20;;;10.30;99.90;;;;;;5091396;27;20202;-64
2023/11/12 00:22:34;;;;;;;1.20;1.10;;;10.30;99.90;;;;;;5096111;28;20199;-64
2023/11/12 00:25:03;;;;;;;1.00;1.00;;;10.30;99.90;;;;;;5096074;28;20400;-63
2023/11/12 00:27:30;;;;;;;2.10;1.90;;;10.30;99.90;;;;;;5096453;28;20284;-64
2023/11/12 00:29:59;;;;;;;1.60;1.47;;;10.30;99.90;;;;;;5089405;28;20229;-64
2023/11/12 00:32:27;;;;;;;1.40;1.30;;;10.30;99.90;;;;;;5098431;27;20203;-63
2023/11/12 00:34:54;;;;;;;1.27;1.17;;;10.30;99.90;;;;;;5096426;28;20233;-64
2023/11/12 00:37:24;;;;;;;1.23;1.13;;;10.30;99.90;;;;;;5107277;28;20218;-65
2023/11/12 00:39:51;;;;;;;2.20;1.37;;;10.30;99.90;;;;;;5099693;28;20555;-63
2023/11/12 00:42:20;;;;;;;1.00;1.00;;;10.30;99.90;;;;;;5096463;28;20185;-64
2023/11/12 00:44:47;;;;;;;1.60;1.50;;;10.30;99.90;;;;;;5097799;28;20726;-63
2023/11/12 00:47:16;;;;;;;1.40;1.30;;;10.20;99.90;;;;;;5096723;28;20880;-63
2023/11/12 00:49:43;;;;;;;1.63;1.40;;;10.20;99.90;;;;;;5095659;28;20213;-64
2023/11/12 00:52:12;;;;;;;1.40;1.30;;;10.20;99.90;;;;;;5095221;28;20276;-63
2023/11/12 00:54:40;;;;;;;1.70;1.60;;;10.20;99.90;;;;;;5096877;28;20210;-64
2023/11/12 00:57:07;;;;;;;1.40;1.30;;;10.20;99.90;;;;;;5095642;28;21021;-64
2023/11/12 00:59:35;;;;;;;1.70;1.60;;;10.10;99.90;;;;;;5095748;28;20705;-63
2023/11/12 01:02:05;;;;;;;1.50;1.40;;;10.10;99.90;;;;;;5092593;28;20208;-64
2023/11/12 01:04:34;;;;;;;1.50;1.40;;;10.10;99.90;;;;;;5100065;28;20192;-63
2023/11/12 01:07:01;;;;;;;1.30;1.20;;;10.10;99.90;;;;;;5098469;28;20660;-63
2023/11/12 01:09:28;;;;;;;1.40;1.30;;;10.10;99.90;;;;;;5098297;28;20267;-63
2023/11/12 01:11:55;;;;;;;1.60;1.40;;;10.10;99.90;;;;;;5097111;28;20324;-64
2023/11/12 01:14:22;;;;;;;1.30;1.20;;;10.10;99.90;;;;;;5095210;28;20315;-63
2023/11/12 01:16:50;;;;;;;1.77;1.40;;;10.10;99.90;;;;;;5096189;28;20210;-64
2023/11/12 01:19:17;;;;;;;1.50;1.40;;;10.10;99.90;;;;;;5089880;28;20288;-63
2023/11/12 01:21:46;;;;;;;1.60;1.50;;;10.10;99.90;;;;;;5096573;28;20203;-63
2023/11/12 01:24:13;;;;;;;1.67;1.57;;;10.10;99.90;;;;;;5094417;28;20685;-63
2023/11/12 01:26:40;;;;;;;1.50;1.40;;;10.10;99.90;;;;;;5096309;28;20201;-63
2023/11/12 01:29:07;;;;;;;2.63;1.87;;;10.10;99.90;;;;;;5095384;28;20328;-63
2023/11/12 01:31:35;;;;;;;1.50;1.40;;;10.00;99.90;;;;;;5094174;28;21134;-64
2023/11/12 01:34:03;;;;;;;1.33;1.23;;;10.00;99.90;;;;;;5097026;28;20673;-64
2023/11/12 01:36:30;;;;;;;2.00;1.80;;;10.00;99.90;;;;;;5094208;28;20272;-63
2023/11/12 01:38:59;;;;;;;3.33;1.50;;;10.00;99.90;;;;;;5093996;28;20234;-64
2023/11/12 01:41:27;;;;;;;1.63;1.53;;;10.00;99.90;;;;;;5093852;28;20200;-63
2023/11/12 01:43:54;;;;;;;1.60;1.50;;;10.00;99.90;;;;;;5095300;28;20191;-63
2023/11/12 01:46:23;;;;;;;1.60;1.50;;;10.00;99.90;;;;;;5094417;28;20638;-62
2023/11/12 01:48:50;;;;;;;1.60;1.50;;;10.00;99.90;;;;;;5095451;28;20203;-63
2023/11/12 01:51:18;;;;;;;1.37;1.27;;;10.00;99.90;;;;;;5093290;28;20656;-63
2023/11/12 01:53:46;;;;;;;1.30;1.20;;;10.00;99.90;;;;;;5091657;28;20195;-63
2023/11/12 01:56:16;;;;;;;1.47;1.17;;;10.00;99.90;;;;;;5095231;28;20548;-63
2023/11/12 01:58:45;;;;;;;1.20;1.10;;;10.00;99.90;;;;;;5089496;28;20200;-63
2023/11/12 02:01:14;;;;;;;1.67;1.53;;;10.00;99.90;;;;;;5091503;28;20939;-63
2023/11/12 02:03:43;;;;;;;1.77;1.53;;;10.00;99.90;;;;;;5090925;28;20213;-62
2023/11/12 02:06:12;;;;;;;1.30;1.20;;;10.00;99.90;;;;;;5094245;28;20718;-63
2023/11/12 02:08:41;;;;;;;1.30;1.20;;;10.00;99.90;;;;;;5089238;28;20198;-64
2023/11/12 02:11:09;;;;;;;1.17;1.07;;;10.00;99.90;;;;;;5087656;28;20638;-63
2023/11/12 02:13:38;;;;;;;1.10;1.10;;;10.00;99.90;;;;;;5095543;28;20204;-63
2023/11/12 02:16:06;;;;;;;1.27;1.20;;;10.00;99.90;;;;;;5094493;28;20870;-63
2023/11/12 02:18:33;;;;;;;1.00;1.00;;;10.00;99.90;;;;;;5088013;28;20206;-63
2023/11/12 02:21:02;;;;;;;1.33;1.20;;;10.00;99.90;;;;;;5087739;28;20875;-63
2023/11/12 02:23:30;;;;;;;1.40;1.30;;;10.00;99.90;;;;;;5096023;28;20196;-63
2023/11/12 02:26:00;;;;;;;1.00;1.00;;;10.00;99.90;;;;;;5087769;28;20188;-64
2023/11/12 02:28:28;;;;;;;1.10;1.00;;;10.00;99.90;;;;;;5089082;28;20235;-64
2023/11/12 02:30:55;;;;;;;1.30;1.20;;;9.90;99.90;;;;;;5093217;28;20190;-63
2023/11/12 02:33:27;;;;;;;1.10;1.10;;;10.00;99.90;;;;;;5089919;27;20282;-63
2023/11/12 02:35:55;;;;;;;1.57;1.00;;;10.00;99.90;;;;;;5101183;27;20575;-63
2023/11/12 02:38:23;;;;;;;0.80;0.80;;;10.00;99.90;;;;;;5093035;28;20211;-63
2023/11/12 02:40:50;;;;;;;1.00;1.00;;;10.00;99.90;;;;;;5086118;28;20609;-64
2023/11/12 02:43:20;;;;;;;1.63;1.00;;;10.00;99.90;;;;;;5089920;28;20264;-63
2023/11/12 02:45:48;;;;;;;1.13;0.80;;;10.00;99.90;;;;;;5091644;28;20191;-63
2023/11/12 02:48:16;;;;;;;1.10;1.00;;;10.00;99.90;;;;;;5096264;28;20192;-63
2023/11/12 02:50:47;;;;;;;0.70;0.70;;;10.00;99.90;;;;;;5087561;28;20196;-64
2023/11/12 02:53:14;;;;;;;0.97;0.87;;;10.00;99.90;;;;;;5094687;28;20194;-63
2023/11/12 02:55:42;;;;;;;0.77;0.77;;;10.00;99.90;;;;;;5093495;28;21028;-63
2023/11/12 02:58:10;;;;;;;1.10;1.00;;;10.00;99.90;;;;;;5089353;28;20208;-63
2023/11/12 03:00:38;;;;;;;0.70;0.70;;;10.00;99.90;;;;;;5091604;28;20210;-63
2023/11/12 03:03:05;;;;;;;0.70;0.70;;;10.00;99.90;;;;;;5093585;28;20219;-62
2023/11/12 03:05:32;;;;;;;0.70;0.70;;;10.10;99.90;;;;;;5093297;28;20200;-63
2023/11/12 03:07:59;;;;;;;0.80;0.67;;;10.10;99.90;;;;;;5092305;28;20219;-63
2023/11/12 03:10:27;;;;;;;0.80;0.80;;;10.10;99.90;;;;;;5093217;28;20882;-63
2023/11/12 03:12:54;;;;;;;1.60;0.70;;;10.10;99.90;;;;;;5091924;28;20227;-64
2023/11/12 03:15:23;;;;;;;0.77;0.77;;;10.10;99.90;;;;;;5097236;28;20607;-64
2023/11/12 03:17:52;;;;;;;2.30;0.70;;;10.60;99.90;;;;;;5097773;28;20206;-63
2023/11/12 03:20:19;;;;;;;0.60;0.60;;;10.10;99.90;;;;;;5104998;28;20195;-64
2023/11/12 03:22:46;;;;;;;0.77;0.63;;;10.10;99.90;;;;;;5110950;28;20191;-63
2023/11/12 03:25:14;;;;;;;0.70;0.70;;;10.10;99.90;;;;;;5103929;28;20187;-64
2023/11/12 03:27:41;;;;;;;0.97;0.87;;;9.10;99.90;;;;;;5098868;28;20680;-64
2023/11/12 03:30:09;;;;;;;0.50;0.50;;;10.10;99.90;;;;;;5099731;28;20223;-64
2023/11/12 03:32:36;;;;;;;0.73;0.73;;;10.00;99.90;;;;;;5096686;28;20238;-64
2023/11/12 03:35:06;;;;;;;0.90;0.90;;;10.00;99.90;;;;;;5097560;28;20218;-64
2023/11/12 03:37:33;;;;;;;0.80;0.80;;;10.00;99.90;;;;;;5095843;28;20219;-63
2023/11/12 03:40:00;;;;;;;0.90;0.90;;;10.00;99.90;;;;;;5097736;28;20216;-63
2023/11/12 03:42:28;;;;;;;0.73;0.73;;;10.00;99.90;;;;;;5097299;28;20660;-63
2023/11/12 03:44:56;;;;;;;0.70;0.70;;;10.00;99.90;;;;;;5097015;28;20188;-63
2023/11/12 03:47:24;;;;;;;1.30;1.00;;;10.00;99.90;;;;;;5098025;28;20187;-64
2023/11/12 03:49:52;;;;;;;0.97;0.97;;;10.00;99.90;;;;;;5096782;28;20245;-64
2023/11/12 03:52:20;;;;;;;2.03;1.10;;;10.00;99.90;;;;;;5097872;28;20220;-64
2023/11/12 03:54:47;;;;;;;1.50;0.90;;;10.00;99.90;;;;;;5090879;28;20208;-64
2023/11/12 03:57:14;;;;;;;0.90;0.83;;;10.00;99.90;;;;;;5098610;28;20255;-64
2023/11/12 03:59:41;;;;;;;0.80;0.80;;;10.10;99.90;;;;;;5089981;28;20200;-64
2023/11/12 04:02:08;;;;;;;1.00;0.90;;;10.10;99.90;;;;;;5107873;28;20671;-64
2023/11/12 04:04:36;;;;;;;1.17;1.00;;;10.10;99.90;;;;;;5103491;28;20217;-64
2023/11/12 04:07:03;;;;;;;1.00;0.90;;;10.00;99.90;;;;;;5106625;28;20193;-64
2023/11/12 04:09:32;;;;;;;0.87;0.87;;;10.10;99.90;;;;;;5094350;28;20200;-64
2023/11/12 04:11:59;;;;;;;1.00;1.00;;;10.00;99.90;;;;;;5097943;28;20341;-64
2023/11/12 04:14:27;;;;;;;1.37;1.27;;;10.00;99.90;;;;;;5097515;28;20573;-64
2023/11/12 04:16:54;;;;;;;1.30;1.20;;;10.00;99.90;;;;;;5097070;28;20665;-63
2023/11/12 04:19:21;;;;;;;1.10;1.10;;;10.00;99.90;;;;;;5093883;28;20656;-63
2023/11/12 04:21:48;;;;;;;1.57;1.47;;;10.00;99.90;;;;;;5096314;28;20553;-63
2023/11/12 04:24:16;;;;;;;1.57;1.43;;;9.90;99.90;;;;;;5096042;28;20196;-64
2023/11/12 04:26:45;;;;;;;1.67;1.57;;;9.90;99.90;;;;;;5096985;28;20203;-63
2023/11/12 04:29:13;;;;;;;1.70;1.60;;;9.90;99.90;;;;;;5094962;28;20248;-63
2023/11/12 04:31:40;;;;;;;2.93;1.47;;;9.90;99.90;;;;;;5096167;28;20779;-63
2023/11/12 04:34:10;;;;;;;1.73;1.60;;;9.90;99.90;;;;;;5098441;28;20239;-63
2023/11/12 04:36:37;;;;;;;1.20;1.20;;;9.80;99.90;;;;;;5103966;28;20665;-63
2023/11/12 04:39:07;;;;;;;1.30;1.20;;;9.90;99.90;;;;;;5094429;28;20597;-63
2023/11/12 04:41:35;;;;;;;1.80;1.70;;;9.90;99.90;;;;;;5091123;28;20820;-63
2023/11/12 04:44:03;;;;;;;1.40;1.30;;;9.80;99.90;;;;;;5096477;28;20274;-63
2023/11/12 04:46:31;;;;;;;2.83;1.90;;;9.80;99.90;;;;;;5095633;28;20777;-63
2023/11/12 04:48:58;;;;;;;1.97;1.80;;;9.80;99.90;;;;;;5096873;28;20318;-63
2023/11/12 04:51:26;;;;;;;2.33;2.10;;;9.80;99.90;;;;;;5095133;28;20575;-63
2023/11/12 04:53:54;;;;;;;1.77;1.67;;;9.70;99.90;;;;;;5096677;28;20199;-63
2023/11/12 04:56:21;;;;;;;1.87;1.77;;;9.70;99.90;;;;;;5096764;28;20216;-63
2023/11/12 04:58:48;;;;;;;2.47;2.10;;;9.70;99.90;;;;;;5096397;28;20666;-64
2023/11/12 05:01:17;;;;;;;2.57;2.23;;;9.70;99.90;;;;;;5094925;28;20208;-63
2023/11/12 05:03:44;;;;;;;1.90;1.80;;;9.70;99.90;;;;;;5094424;28;20567;-63
2023/11/12 05:06:12;;;;;;;2.50;2.30;;;9.70;99.90;;;;;;5095219;28;20199;-63
2023/11/12 05:08:39;;;;;;;2.03;1.83;;;9.70;99.90;;;;;;5095364;28;20732;-63
2023/11/12 05:11:06;;;;;;;2.37;2.17;;;9.70;99.90;;;;;;5095953;28;20199;-63
2023/11/12 05:13:33;;;;;;;2.27;2.07;;;9.70;99.90;;;;;;5090077;28;20221;-64
2023/11/12 05:16:02;;;;;;;2.60;2.40;;;9.70;99.90;;;;;;5095687;28;20267;-63
2023/11/12 05:18:31;;;;;;;2.30;2.10;;;9.70;99.90;;;;;;5096334;28;20553;-63
2023/11/12 05:20:58;;;;;;;2.00;1.90;;;9.70;99.90;;;;;;5095605;28;20653;-64
2023/11/12 05:23:25;;;;;;;1.80;1.70;;;9.70;99.90;;;;;;5094880;28;20239;-63
2023/11/12 05:25:54;;;;;;;1.70;1.60;;;9.70;99.90;;;;;;5093874;28;20733;-63
2023/11/12 05:28:23;;;;;;;2.00;1.80;;;9.70;99.90;;;;;;5093215;28;20231;-63
2023/11/12 05:30:50;;;;;;;1.50;1.40;;;9.70;99.90;;;;;;5094244;28;20205;-63
2023/11/12 05:33:17;;;;;;;1.57;1.47;;;9.70;99.90;;;;;;5095115;28;20570;-63
2023/11/12 05:35:46;;;;;;;1.73;1.50;;;9.80;99.90;;;;;;5093113;28;20222;-63
2023/11/12 05:38:13;;;;;;;1.67;1.57;;;9.80;99.90;;;;;;5092239;28;20228;-63
2023/11/12 05:40:41;;;;;;;1.83;1.73;;;9.80;99.90;;;;;;5103800;28;20503;-63
2023/11/12 05:43:08;;;;;;;1.63;1.53;;;9.80;99.90;;;;;;5097482;28;20597;-64
2023/11/12 05:45:35;;;;;;;1.23;1.20;;;9.70;99.90;;;;;;5101798;28;20186;-63
2023/11/12 05:48:02;;;;;;;1.83;1.73;;;9.70;99.90;;;;;;5097491;28;20212;-63
2023/11/12 05:50:29;;;;;;;1.63;1.50;;;9.70;99.90;;;;;;5095569;28;20225;-63
2023/11/12 05:52:58;;;;;;;3.47;1.70;;;9.70;99.90;;;;;;5093826;28;20261;-63
2023/11/12 05:55:25;;;;;;;1.90;1.50;;;9.70;99.90;;;;;;5096327;28;20191;-63
2023/11/12 05:57:52;;;;;;;1.90;1.70;;;9.70;99.90;;;;;;5094887;28;20220;-63
2023/11/12 06:00:19;;;;;;;1.43;1.33;;;9.70;99.90;;;;;;5086936;28;20194;-64
2023/11/12 06:02:46;;;;;;;1.30;1.30;;;9.70;99.90;;;;;;5094242;28;20647;-63
2023/11/12 06:05:13;;;;;;;1.90;1.80;;;9.70;99.90;;;;;;5095007;28;20202;-63
2023/11/12 06:07:40;;;;;;;2.60;2.10;;;9.70;99.90;;;;;;5093848;28;20208;-64
2023/11/12 06:10:10;;;;;;;2.17;1.90;;;9.70;99.90;;;;;;5094560;28;20216;-63
2023/11/12 06:12:37;;;;;;;1.70;1.60;;;9.60;99.90;;;;;;5095115;28;20261;-64
2023/11/12 06:15:06;;;;;;;1.63;1.53;;;9.60;99.90;;;;;;5095295;28;20203;-64
2023/11/12 06:17:33;;;;;;;1.90;1.80;;;9.70;99.90;;;;;;5095298;28;22181;-64
2023/11/12 06:20:00;;;;;;;2.03;1.80;;;9.70;99.90;;;;;;5095206;28;20197;-64
2023/11/12 06:22:27;;;;;;;2.80;1.97;;;9.70;99.90;;;;;;5095865;28;20296;-64
2023/11/12 06:24:54;;;;;;;2.20;2.00;;;9.70;99.90;;;;;;5095778;28;20200;-64
2023/11/12 06:27:22;;;;;;;1.67;1.57;;;9.60;99.90;;;;;;5095679;28;20576;-63
2023/11/12 06:29:50;;;;;;;2.77;2.10;;;9.60;99.90;;;;;;5095047;28;20239;-63
2023/11/12 06:32:20;;;;;;;1.80;1.70;;;9.70;99.90;;;;;;5094812;28;20244;-63
2023/11/12 06:34:47;;;;;;;2.43;2.33;;;9.70;99.90;;;;;;5094032;28;20236;-63
2023/11/12 06:37:15;;;;;;;2.77;2.53;;;9.70;99.90;;;;;;5091874;28;20203;-63
2023/11/12 06:39:42;;;;;;;3.33;2.70;;;9.70;99.90;;;;;;5093786;28;20203;-64
2023/11/12 06:42:10;;;;;;;3.27;2.20;;;9.70;99.90;;;;;;5094356;28;20206;-63
2023/11/12 06:44:38;;;;;;;2.97;2.70;;;9.70;99.90;;;;;;5094556;28;20191;-63
2023/11/12 06:47:06;;;;;;;2.50;2.30;;;9.70;99.90;;;;;;5093200;28;20203;-63
2023/11/12 06:49:33;;;;;;;2.33;2.13;;;9.70;99.90;;;;;;5089962;28;20200;-63
2023/11/12 06:52:00;;;;;;;2.47;2.00;;;9.70;99.90;;;;;;5095388;28;20248;-63
2023/11/12 06:54:27;;;;;;;1.90;1.80;;;9.70;99.90;;;;;;5094180;28;20280;-63
2023/11/12 06:56:54;;;;;;;2.13;1.93;;;9.70;99.90;;;;;;5094729;28;20239;-63
2023/11/12 06:59:22;;;;;;;2.53;2.33;;;9.80;99.90;;;;;;5093773;28;20204;-64
2023/11/12 07:01:50;;;;;;;2.00;1.90;;;9.80;99.90;;;;;;5094567;28;20193;-63
2023/11/12 07:04:17;;;;;;;2.37;2.17;;;9.80;99.90;;;;;;5090436;28;20585;-63
2023/11/12 07:06:44;;;;;;;3.27;2.53;;;9.80;99.90;;;;;;5093912;28;20199;-64
2023/11/12 07:09:12;;;;;;;2.93;2.20;;;9.80;99.90;;;;;;5087115;28;20678;-64
2023/11/12 07:11:39;;;;;;;2.40;2.20;;;9.80;99.90;;;;;;5094983;28;20199;-64
2023/11/12 07:14:07;;;;;;;1.90;1.80;;;9.80;99.90;;;;;;5093663;28;20205;-64
2023/11/12 07:16:35;;;;;;;2.60;2.00;;;9.90;99.90;;;;;;5093438;28;20267;-63
2023/11/12 07:19:04;;;;;;;2.93;2.33;;;9.90;99.90;;;;;;5094595;28;20188;-62
2023/11/12 07:21:32;;;;;;;2.13;2.00;;;9.90;99.90;;;;;;5093924;28;20198;-65
2023/11/12 07:24:00;;;;;;;2.13;2.03;;;9.90;99.90;;;;;;5096352;28;20669;-63
2023/11/12 07:26:28;;;;;;;2.13;2.00;;;9.90;99.90;;;;;;5093474;28;20209;-64
2023/11/12 07:28:57;;;;;;;3.83;2.57;;;9.90;99.90;;;;;;5094866;28;20254;-64
2023/11/12 07:31:24;;;;;;;4.30;3.17;;;9.90;99.90;;;;;;5093973;28;20204;-64
2023/11/12 07:33:51;;;;;;;6.20;3.60;;;9.90;99.90;;;;;;5087068;28;20193;-64
2023/11/12 07:36:21;;;;;;;2.90;2.60;;;9.90;99.90;;;;;;5095168;28;20270;-62
2023/11/12 07:38:48;;;;;;;2.90;2.60;;;9.90;99.90;;;;;;5092978;28;20204;-63
2023/11/12 07:41:15;;;;;;;3.67;3.10;;;9.90;99.90;;;;;;5084408;28;20200;-63
2023/11/12 07:43:43;;;;;;;2.40;2.20;;;9.90;99.90;;;;;;5092619;28;20354;-63
2023/11/12 07:46:10;;;;;;;2.20;1.97;;;10.00;99.90;;;;;;5092536;28;20211;-63
2023/11/12 07:48:38;;;;;;;1.73;1.63;;;10.00;99.90;;;;;;5093822;28;20607;-63
2023/11/12 07:51:05;;;;;;;2.47;2.00;;;10.00;99.90;;;;;;5085614;28;20192;-63
2023/11/12 07:53:34;;;;;;;1.90;1.80;;;10.00;99.90;;;;;;5087757;28;20196;-64
2023/11/12 07:56:01;;;;;;;1.90;1.70;;;10.00;99.90;;;;;;5093108;28;20198;-64
2023/11/12 07:58:28;;;;;;;2.10;1.90;;;10.00;99.90;;;;;;5096515;28;20193;-63
2023/11/12 08:00:55;;;;;;;2.40;2.00;;;10.00;99.90;;;;;;5096846;28;20195;-63
2023/11/12 08:03:22;;;;;;;2.37;2.07;;;10.10;99.90;;;;;;5106433;28;20220;-63
2023/11/12 08:05:49;;;;;;;2.00;1.90;;;10.10;99.90;;;;;;5098689;28;20281;-64
2023/11/12 08:08:16;;;;;;;1.97;1.80;;;10.10;99.90;;;;;;5106720;28;20215;-64
2023/11/12 08:10:45;;;;;;;2.73;2.53;;;10.10;99.90;;;;;;5097120;28;20217;-64
2023/11/12 08:13:14;;;;;;;3.00;2.23;;;10.10;99.90;;;;;;5094273;28;20204;-64
2023/11/12 08:15:42;;;;;;;2.50;2.30;;;10.10;99.90;;;;;;5099443;28;20192;-64
2023/11/12 08:18:09;;;;;;;2.30;2.10;;;10.10;99.90;;;;;;5104533;28;20679;-64
2023/11/12 08:20:36;;;;;;;2.40;2.07;;;10.10;99.90;;;;;;5094431;28;20211;-64
2023/11/12 08:23:04;;;;;;;2.37;2.03;;;10.10;99.90;;;;;;5103616;28;20219;-63
2023/11/12 08:25:31;;;;;;;1.80;1.70;;;10.20;99.90;;;;;;5106645;28;20558;-64
2023/11/12 08:27:59;;;;;;;2.17;1.80;;;10.20;99.90;;;;;;5099423;28;20288;-64
2023/11/12 08:30:27;;;;;;;1.90;1.80;;;10.20;99.90;;;;;;5087627;28;20204;-64
2023/11/12 08:32:54;;;;;;;2.67;2.23;;;10.20;99.90;;;;;;5095340;28;20195;-64
2023/11/12 08:35:21;;;;;;;3.63;2.27;;;10.30;99.90;;;;;;5089581;28;20267;-63
2023/11/12 08:37:48;;;;;;;2.23;2.03;;;10.30;99.90;;;;;;5088241;28;20231;-63
2023/11/12 08:40:15;;;;;;;2.10;2.00;;;10.30;99.90;;;;;;5096526;28;20199;-63
2023/11/12 08:42:42;;;;;;;2.13;1.80;;;10.30;99.90;;;;;;5094721;28;20193;-64
2023/11/12 08:45:12;;;;;;;2.80;2.30;;;10.40;99.90;;;;;;5095688;28;20198;-64
2023/11/12 08:47:39;;;;;;;3.67;2.40;;;10.40;99.90;;;;;;5096763;28;20193;-64
2023/11/12 08:50:07;;;;;;;2.80;2.20;;;10.50;99.90;;;;;;5093981;28;20204;-64
2023/11/12 08:52:34;;;;;;;2.67;2.43;;;10.50;99.90;;;;;;5095803;28;20285;-63
2023/11/12 08:55:01;;;;;;;3.23;2.63;;;10.50;99.90;;;;;;5097285;28;20207;-63
2023/11/12 08:57:28;;;;;;;2.60;2.33;;;10.50;99.90;;;;;;5098006;28;20560;-64
2023/11/12 08:59:55;;;;;;;2.23;2.03;;;10.50;99.90;;;;;;5089753;28;20221;-63
2023/11/12 09:02:23;;;;;;;2.30;2.10;;;10.60;99.90;;;;;;5096249;28;20523;-63
2023/11/12 09:04:50;;;;;;;2.03;1.83;;;10.60;99.90;;;;;;5095551;28;20199;-63
2023/11/12 09:07:20;;;;;;;3.53;2.20;;;10.60;99.90;;;;;;5090381;28;20206;-63
2023/11/12 09:09:47;;;;;;;2.20;2.00;;;10.60;99.90;;;;;;5096068;28;20219;-63
2023/11/12 09:12:14;;;;;;;2.37;2.10;;;10.60;99.90;;;;;;5096794;28;20209;-63
2023/11/12 09:14:41;;;;;;;2.70;2.03;;;10.70;99.90;;;;;;5096143;28;20192;-64
2023/11/12 09:17:08;;;;;;;2.47;2.27;;;10.70;99.90;;;;;;5096108;28;20216;-63
2023/11/12 09:19:36;;;;;;;2.50;1.97;;;10.70;99.90;;;;;;5097153;28;20695;-63
2023/11/12 09:22:04;;;;;;;5.07;3.10;;;10.70;99.90;;;;;;5093655;28;20199;-64
2023/11/12 09:24:31;;;;;;;3.13;2.50;;;10.70;99.90;;;;;;5092853;28;20737;-64
2023/11/12 09:26:58;;;;;;;2.23;2.03;;;10.50;99.90;;;;;;5095381;28;20192;-64
2023/11/12 09:29:26;;;;;;;2.10;1.83;;;10.70;99.90;;;;;;5094756;28;20259;-63
2023/11/12 09:31:53;;;;;;;2.20;2.00;;;10.70;99.90;;;;;;5094480;28;20674;-64
2023/11/12 09:34:20;;;;;;;2.30;2.10;;;10.80;99.90;;;;;;5094142;28;20214;-64
2023/11/12 09:36:49;;;;;;;2.00;1.80;;;10.80;99.90;;;;;;5093506;28;20192;-63
2023/11/12 09:39:16;;;;;;;2.20;2.00;;;10.90;99.90;;;;;;5095766;28;20195;-63
2023/11/12 09:41:46;;;;;;;1.80;1.70;;;10.90;99.90;;;;;;5094457;28;20207;-64
2023/11/12 09:44:17;;;;;;;2.07;1.90;;;10.90;99.90;;;;;;5094338;28;20268;-62
2023/11/12 09:46:46;;;;;;;1.80;1.70;;;10.90;99.90;;;;;;5093609;28;20185;-62
2023/11/12 09:49:14;;;;;;;1.87;1.77;;;10.90;99.90;;;;;;5091125;28;20861;-63
2023/11/12 09:51:42;;;;;;;1.57;1.47;;;10.90;99.90;;;;;;5093876;28;20196;-63
2023/11/12 09:54:13;;;;;;;1.50;1.40;;;10.90;99.90;;;;;;5095036;28;20195;-64
2023/11/12 09:56:40;;;;;;;1.77;1.63;;;11.00;99.90;;;;;;5095473;28;20200;-63
2023/11/12 09:59:08;;;;;;;1.90;1.80;;;11.00;99.90;;;;;;5099150;28;20195;-64
2023/11/12 10:01:38;;;;;;;1.70;1.60;;;11.00;99.90;;;;;;5099026;28;20199;-65
2023/11/12 10:04:06;;;;;;;1.50;1.40;;;11.10;99.90;;;;;;5095562;28;20918;-64
2023/11/12 10:06:34;;;;;;;1.77;1.67;;;11.10;99.90;;;;;;5094842;28;20316;-63
2023/11/12 10:09:01;;;;;;;2.90;1.90;;;11.20;99.90;;;;;;5094187;28;20204;-63
2023/11/12 10:11:32;;;;;;;1.40;1.30;;;11.20;99.90;;;;;;5094604;28;20957;-63
2023/11/12 10:13:59;;;;;;;1.43;1.33;;;11.20;99.90;;;;;;5095724;28;20539;-63
2023/11/12 10:16:29;;;;;;;1.23;1.17;;;11.20;99.90;;;;;;5094239;28;20752;-63
2023/11/12 10:19:10;;;;;;;1.50;1.40;;;11.20;99.90;;;;;;5095460;28;20212;-63
2023/11/12 10:21:53;;;;;;;1.60;1.50;;;11.30;99.90;;;;;;5094054;28;20795;-63
2023/11/12 10:24:21;;;;;;;1.40;1.30;;;11.20;99.90;;;;;;5086050;28;22431;-63
2023/11/12 10:26:49;;;;;;;1.57;1.47;;;11.20;99.90;;;;;;5098120;28;20200;-62
2023/11/12 10:29:20;;;;;;;1.50;1.27;;;11.00;99.90;;;;;;5094335;28;20231;-63
2023/11/12 10:31:49;;;;;;;1.13;1.10;;;11.30;99.90;;;;;;5087166;28;20201;-62
2023/11/12 10:34:17;;;;;;;1.50;1.30;;;11.30;99.90;;;;;;5095107;28;20206;-63
2023/11/12 10:37:02;;;;;;;1.37;1.27;;;11.30;99.90;;;;;;5094136;28;20592;-63
2023/11/12 10:39:34;;;;;;;1.53;1.33;;;11.30;99.90;;;;;;5093739;28;20192;-63
2023/11/12 10:42:03;;;;;;;1.13;1.03;;;11.30;99.90;;;;;;5095273;28;20216;-63
2023/11/12 10:44:33;;;;;;;1.43;1.10;;;11.40;99.90;;;;;;5095103;28;20276;-63
2023/11/12 10:47:03;;;;;;;0.90;0.90;;;11.40;99.90;;;;;;5095090;28;20709;-63
2023/11/12 10:49:33;;;;;;;1.10;1.00;;;11.50;99.90;;;;;;5095186;28;20265;-63
2023/11/12 10:52:03;;;;;;;1.60;1.50;;;11.50;99.90;;;;;;5091045;28;20203;-63
2023/11/12 10:54:33;;;;;;;1.50;1.40;;;11.50;99.90;;;;;;5091820;28;20283;-63
2023/11/12 10:57:01;;;;;;;1.30;1.20;;;11.60;99.90;;;;;;5095690;28;20221;-62
2023/11/12 10:59:31;;;;;;;1.20;1.10;;;11.60;99.90;;;;;;5093755;28;20276;-64
2023/11/12 11:02:00;;;;;;;1.20;1.13;;;11.70;99.90;;;;;;5094119;28;20214;-63
2023/11/12 11:04:27;;;;;;;1.40;1.30;;;11.70;99.90;;;;;;5094366;28;20202;-63
2023/11/12 11:06:54;;;;;;;1.43;1.33;;;11.70;99.90;;;;;;5094731;28;20615;-65
2023/11/12 11:09:24;;;;;;;1.37;1.20;;;11.80;99.90;;;;;;5093173;28;20285;-63
2023/11/12 11:11:51;;;;;;;1.27;1.20;;;11.80;99.90;;;;;;5094333;28;20271;-63
2023/11/12 11:14:23;;;;;;;1.70;1.60;;;11.80;99.90;;;;;;5093542;28;20277;-63
2023/11/12 11:16:53;;;;;;;1.70;1.60;;;11.70;99.90;;;;;;5092669;28;20283;-63
2023/11/12 11:19:20;;;;;;;1.50;1.40;;;11.70;99.90;;;;;;5093984;28;20304;-64
2023/11/12 11:22:24;;;;;;;1.93;1.80;;;11.70;99.90;;;;;;5093908;28;20245;-63
2023/11/12 11:24:53;;;;;;;1.80;1.70;;;11.70;99.90;;;;;;5066438;28;20678;-63
2023/11/12 11:27:21;;;;;;;1.67;1.57;;;11.70;99.90;;;;;;5093064;28;20278;-64
2023/11/12 11:30:12;;;;;;;1.90;1.80;;;11.70;99.90;;;;;;5093146;28;20224;-64
2023/11/12 11:32:57;;;;;;;2.80;2.03;;;11.80;99.90;;;;;;5096630;28;20674;-62
2023/11/12 11:35:26;;;;;;;1.97;1.77;;;11.80;99.90;;;;;;5100705;28;20222;-63
2023/11/12 11:38:12;;;;;;;2.43;2.20;;;11.80;99.90;;;;;;5102947;28;20314;-63
2023/11/12 11:40:42;;;;;;;3.07;1.97;;;11.80;99.90;;;;;;5106596;28;20222;-63
2023/11/12 11:43:32;;;;;;;2.60;1.90;;;11.90;99.90;;;;;;5105043;28;20193;-62
2023/11/12 11:46:12;;;;;;;2.03;1.93;;;11.90;99.90;;;;;;5104966;28;20195;-62
2023/11/12 11:49:19;;;;;;;1.40;1.30;;;12.00;99.90;;;;;;5109123;28;20544;-63
2023/11/12 11:51:48;;;;;;;1.97;1.80;;;12.00;99.90;;;;;;5092520;28;20197;-63
2023/11/12 11:54:15;;;;;;;2.00;1.60;;;12.10;99.90;;;;;;5095281;28;20184;-63
2023/11/12 11:56:43;;;;;;;1.73;1.30;;;12.10;99.90;;;;;;5096652;28;20227;-63
2023/11/12 11:59:10;;;;;;;1.50;1.20;;;12.20;99.90;;;;;;5096705;28;20271;-63
2023/11/12 12:01:48;;;;;;;1.00;0.97;;;12.30;99.90;;;;;;5096494;28;20678;-63
2023/11/12 12:04:16;;;;;;;1.27;1.17;;;12.30;99.90;;;;;;5097947;28;20196;-63
2023/11/12 12:06:46;;;;;;;1.00;1.00;;;12.30;99.90;;;;;;5097213;28;20184;-63
2023/11/12 12:09:17;;;;;;;0.70;0.70;;;12.30;99.90;;;;;;5104249;28;20548;-64
2023/11/12 12:11:46;;;;;;;0.93;0.80;;;12.20;99.90;;;;;;5099334;28;20189;-63
2023/11/12 12:14:14;;;;;;;1.20;1.10;;;12.20;99.90;;;;;;5108253;28;20193;-63
2023/11/12 12:16:42;;;;;;;1.33;1.00;;;12.20;99.90;;;;;;5095026;28;20226;-63
2023/11/12 12:19:14;;;;;;;0.80;0.80;;;12.20;99.90;;;;;;5099115;28;20217;-63
2023/11/12 12:21:46;;;;;;;1.13;0.90;;;12.10;99.90;;;;;;5096973;28;20406;-63
2023/11/12 12:24:14;;;;;;;1.20;0.80;;;12.10;99.90;;;;;;5096283;28;20567;-62
2023/11/12 12:26:41;;;;;;;1.03;1.00;;;12.10;99.90;;;;;;5090553;28;20246;-62
2023/11/12 12:29:15;;;;;;;1.30;1.10;;;10.60;99.90;;;;;;5094288;28;20233;-63
2023/11/12 12:31:44;;;;;;;1.10;1.00;;;12.10;99.90;;;;;;5090707;28;20650;-62
2023/11/12 12:34:12;;;;;;;1.03;1.00;;;12.10;99.90;;;;;;5095817;28;20201;-63
2023/11/12 12:36:39;;;;;;;1.00;1.00;;;12.10;99.90;;;;;;5102452;28;20297;-64
2023/11/12 12:39:09;;;;;;;1.33;1.00;;;12.10;99.90;;;;;;5105503;28;20204;-62
2023/11/12 12:41:37;;;;;;;1.30;1.20;;;12.10;99.90;;;;;;5093749;28;20185;-64
2023/11/12 12:44:07;;;;;;;1.20;1.10;;;12.10;99.90;;;;;;5093473;28;20200;-64
2023/11/12 12:46:45;;;;;;;0.90;0.80;;;12.10;99.90;;;;;;5095404;28;20207;-63
2023/11/12 12:49:13;;;;;;;0.93;0.90;;;12.10;99.90;;;;;;5092081;28;20273;-63
2023/11/12 12:51:55;;;;;;;0.80;0.80;;;12.00;99.90;;;;;;5095176;28;20189;-63
2023/11/12 12:54:23;;;;;;;0.80;0.80;;;12.00;99.90;;;;;;5087329;28;20289;-64
2023/11/12 12:56:50;;;;;;;0.63;0.63;;;12.00;99.90;;;;;;5095006;28;20205;-63